AFR3615 EKCH-LFLL
Flight info
| Callsign | AFR3615 |
|---|---|
| Flight time | 1h 42m |
| Altitude | 40000 |
| Route | NEXEN T503 GIMRU DCT MICOS DCT WRB DCT XAROL DCT BOMBI DCT GIGET DCT ABUKA DCT KRH DCT NATOR/N0471F410 DCT LUTIX DCT BENOT N869 MILPA |
| Aircraft | B77L/H-SDE1E2E3FGHIJ2J3J4J5M1RWXY/LB1D1 |
Departure
| Time | 2026-04-25 12:54 |
|---|---|
| Airport | Copenhagen Kastrup Airport (EKCH) |
Arrival
| Time | 2026-04-25 14:37 |
|---|---|
| Airport | Lyon Saint-Exupéry Airport (LFLL) |
| Time | Latitude | Longitude | Altitude | Speed | Heading |
|---|---|---|---|---|---|
| 2026-04-25 11:49 | 55.62623 | 12.64414 | 32 ft | 0 kts | 65° |
| 2026-04-25 12:39 | 55.62619 | 12.64398 | 32 ft | 2 kts | 65° |
| 2026-04-25 12:39 | 55.62612 | 12.64371 | 26 ft | 2 kts | 65° |
| 2026-04-25 12:39 | 55.62605 | 12.64345 | 25 ft | 2 kts | 65° |
| 2026-04-25 12:40 | 55.62600 | 12.64327 | 24 ft | 2 kts | 64° |
| 2026-04-25 12:40 | 55.62593 | 12.64301 | 24 ft | 2 kts | 54° |
| 2026-04-25 12:40 | 55.62579 | 12.64288 | 24 ft | 2 kts | 343° |
| 2026-04-25 12:40 | 55.62564 | 12.64301 | 24 ft | 2 kts | 321° |
| 2026-04-25 12:41 | 55.62550 | 12.64330 | 24 ft | 2 kts | 303° |
| 2026-04-25 12:41 | 55.62541 | 12.64354 | 24 ft | 2 kts | 301° |
| 2026-04-25 12:41 | 55.62539 | 12.64361 | 32 ft | 0 kts | 301° |
| 2026-04-25 12:45 | 55.62539 | 12.64360 | 32 ft | 0 kts | 301° |
| 2026-04-25 12:45 | 55.62540 | 12.64357 | 32 ft | 0 kts | 301° |
| 2026-04-25 12:46 | 55.62541 | 12.64355 | 32 ft | 0 kts | 301° |
| 2026-04-25 12:46 | 55.62542 | 12.64351 | 24 ft | 0 kts | 301° |
| 2026-04-25 12:46 | 55.62543 | 12.64348 | 24 ft | 0 kts | 301° |
| 2026-04-25 12:47 | 55.62549 | 12.64330 | 24 ft | 5 kts | 301° |
| 2026-04-25 12:47 | 55.62561 | 12.64293 | 23 ft | 5 kts | 295° |
| 2026-04-25 12:47 | 55.62560 | 12.64239 | 31 ft | 4 kts | 254° |
| 2026-04-25 12:47 | 55.62533 | 12.64188 | 31 ft | 9 kts | 194° |
| 2026-04-25 12:48 | 55.62499 | 12.64258 | 29 ft | 18 kts | 118° |
| 2026-04-25 12:48 | 55.62421 | 12.64437 | 26 ft | 16 kts | 151° |
| 2026-04-25 12:48 | 55.62358 | 12.64434 | 27 ft | 0 kts | 192° |
| 2026-04-25 12:49 | 55.62287 | 12.64406 | 27 ft | 16 kts | 195° |
| 2026-04-25 12:49 | 55.62174 | 12.64324 | 20 ft | 20 kts | 205° |
| 2026-04-25 12:49 | 55.62051 | 12.64220 | 28 ft | 20 kts | 206° |
| 2026-04-25 12:49 | 55.61928 | 12.64121 | 29 ft | 19 kts | 205° |
| 2026-04-25 12:50 | 55.61799 | 12.64077 | 31 ft | 19 kts | 177° |
| 2026-04-25 12:50 | 55.61758 | 12.64080 | 31 ft | 0 kts | 177° |
| 2026-04-25 12:52 | 55.61752 | 12.64081 | 31 ft | 4 kts | 177° |
| 2026-04-25 12:52 | 55.61688 | 12.64086 | 32 ft | 11 kts | 178° |
| 2026-04-25 12:53 | 55.61613 | 12.64044 | 32 ft | 13 kts | 217° |
| 2026-04-25 12:53 | 55.61508 | 12.63884 | 29 ft | 23 kts | 221° |
| 2026-04-25 12:53 | 55.61298 | 12.63556 | 30 ft | 58 kts | 220° |
| 2026-04-25 12:53 | 55.60800 | 12.62755 | 28 ft | 138 kts | 221° |
| 2026-04-25 12:54 | 55.60006 | 12.61622 | 270 ft | 149 kts | 225° |
| 2026-04-25 12:54 | 55.59158 | 12.60425 | 606 ft | 162 kts | 227° |
| 2026-04-25 12:54 | 55.58335 | 12.59149 | 1921 ft | 151 kts | 232° |
| 2026-04-25 12:54 | 55.57524 | 12.57874 | 2894 ft | 165 kts | 232° |
| 2026-04-25 12:55 | 55.56597 | 12.56375 | 3302 ft | 199 kts | 231° |
| 2026-04-25 12:55 | 55.55829 | 12.55285 | 3496 ft | 229 kts | 225° |
| 2026-04-25 12:55 | 55.53953 | 12.52964 | 4619 ft | 254 kts | 223° |
| 2026-04-25 12:55 | 55.52494 | 12.51215 | 5732 ft | 260 kts | 222° |
| 2026-04-25 12:56 | 55.50980 | 12.49398 | 6847 ft | 265 kts | 223° |
| 2026-04-25 12:56 | 55.49454 | 12.47565 | 8070 ft | 265 kts | 224° |
| 2026-04-25 12:56 | 55.47930 | 12.45727 | 9294 ft | 266 kts | 225° |
| 2026-04-25 12:56 | 55.46395 | 12.43864 | 10355 ft | 272 kts | 225° |
| 2026-04-25 12:57 | 55.44776 | 12.41874 | 10877 ft | 299 kts | 225° |
| 2026-04-25 12:57 | 55.42976 | 12.39648 | 11245 ft | 329 kts | 224° |
| 2026-04-25 12:57 | 55.41061 | 12.37316 | 12228 ft | 340 kts | 223° |
| 2026-04-25 12:57 | 55.39096 | 12.34942 | 13404 ft | 346 kts | 223° |
| 2026-04-25 12:58 | 55.37099 | 12.32532 | 14485 ft | 350 kts | 224° |
| 2026-04-25 12:58 | 55.35106 | 12.30127 | 15579 ft | 354 kts | 224° |
| 2026-04-25 12:58 | 55.33064 | 12.27657 | 16648 ft | 359 kts | 224° |
| 2026-04-25 12:58 | 55.30992 | 12.25150 | 17698 ft | 365 kts | 225° |
| 2026-04-25 12:59 | 55.28889 | 12.22606 | 18666 ft | 370 kts | 225° |
| 2026-04-25 12:59 | 55.26755 | 12.20030 | 19581 ft | 374 kts | 225° |
| 2026-04-25 12:59 | 55.24598 | 12.17427 | 20490 ft | 379 kts | 225° |
| 2026-04-25 12:59 | 55.22412 | 12.14792 | 21374 ft | 384 kts | 225° |
| 2026-04-25 13:00 | 55.20195 | 12.12124 | 22271 ft | 389 kts | 225° |
| 2026-04-25 13:00 | 55.18729 | 12.10316 | 22862 ft | 391 kts | 226° |
| 2026-04-25 13:00 | 55.15805 | 12.06575 | 23924 ft | 396 kts | 227° |
| 2026-04-25 13:00 | 55.13577 | 12.03691 | 24638 ft | 401 kts | 227° |
| 2026-04-25 13:01 | 55.11317 | 12.00771 | 25326 ft | 407 kts | 227° |
| 2026-04-25 13:01 | 55.09025 | 11.97820 | 26013 ft | 412 kts | 226° |
| 2026-04-25 13:01 | 55.06696 | 11.94838 | 26696 ft | 418 kts | 226° |
| 2026-04-25 13:01 | 55.04336 | 11.91827 | 27350 ft | 423 kts | 226° |
| 2026-04-25 13:02 | 55.01940 | 11.88781 | 28008 ft | 429 kts | 226° |
| 2026-04-25 13:02 | 54.99510 | 11.85698 | 28638 ft | 435 kts | 226° |
| 2026-04-25 13:02 | 54.97045 | 11.82576 | 29260 ft | 440 kts | 226° |
| 2026-04-25 13:02 | 54.94556 | 11.79429 | 29898 ft | 445 kts | 226° |
| 2026-04-25 13:03 | 54.92037 | 11.76249 | 30422 ft | 450 kts | 226° |
| 2026-04-25 13:03 | 54.89529 | 11.73089 | 30930 ft | 454 kts | 226° |
| 2026-04-25 13:03 | 54.86963 | 11.69860 | 31433 ft | 457 kts | 225° |
| 2026-04-25 13:03 | 54.84376 | 11.66609 | 31897 ft | 461 kts | 225° |
| 2026-04-25 13:04 | 54.81774 | 11.63341 | 32371 ft | 463 kts | 225° |
| 2026-04-25 13:04 | 54.79155 | 11.60067 | 32947 ft | 463 kts | 225° |
| 2026-04-25 13:04 | 54.76540 | 11.56814 | 33556 ft | 462 kts | 225° |
| 2026-04-25 13:04 | 54.73937 | 11.53583 | 34147 ft | 461 kts | 225° |
| 2026-04-25 13:05 | 54.71328 | 11.50344 | 34563 ft | 462 kts | 225° |
| 2026-04-25 13:05 | 54.68748 | 11.47143 | 34957 ft | 464 kts | 225° |
| 2026-04-25 13:05 | 54.66125 | 11.43894 | 35380 ft | 464 kts | 225° |
| 2026-04-25 13:05 | 54.63497 | 11.40644 | 35833 ft | 464 kts | 224° |
| 2026-04-25 13:06 | 54.60871 | 11.37401 | 36258 ft | 464 kts | 224° |
| 2026-04-25 13:06 | 54.58241 | 11.34159 | 36662 ft | 465 kts | 224° |
| 2026-04-25 13:06 | 54.55606 | 11.30917 | 37075 ft | 466 kts | 224° |
| 2026-04-25 13:06 | 54.52969 | 11.27686 | 37480 ft | 466 kts | 224° |
| 2026-04-25 13:07 | 54.50322 | 11.24452 | 37910 ft | 466 kts | 223° |
| 2026-04-25 13:07 | 54.47679 | 11.21230 | 38322 ft | 466 kts | 223° |
| 2026-04-25 13:07 | 54.45068 | 11.18050 | 38694 ft | 466 kts | 223° |
| 2026-04-25 13:07 | 54.42422 | 11.14831 | 38989 ft | 466 kts | 223° |
| 2026-04-25 13:08 | 54.39775 | 11.11612 | 39281 ft | 467 kts | 223° |
| 2026-04-25 13:08 | 54.37125 | 11.08395 | 39561 ft | 467 kts | 223° |
| 2026-04-25 13:08 | 54.34470 | 11.05180 | 39851 ft | 467 kts | 222° |
| 2026-04-25 13:08 | 54.31773 | 11.02010 | 39907 ft | 475 kts | 219° |
| 2026-04-25 13:09 | 54.25814 | 10.96825 | 39976 ft | 484 kts | 210° |
| 2026-04-25 13:09 | 54.19620 | 10.92447 | 39969 ft | 479 kts | 209° |
| 2026-04-25 13:10 | 54.13526 | 10.88157 | 39974 ft | 476 kts | 209° |
| 2026-04-25 13:10 | 54.07417 | 10.83802 | 39990 ft | 475 kts | 209° |
| 2026-04-25 13:11 | 54.01323 | 10.79438 | 40006 ft | 475 kts | 209° |
| 2026-04-25 13:11 | 53.95220 | 10.75075 | 40018 ft | 477 kts | 209° |
| 2026-04-25 13:12 | 53.89098 | 10.70715 | 40025 ft | 478 kts | 209° |
| 2026-04-25 13:12 | 53.83989 | 10.67091 | 40019 ft | 479 kts | 209° |
| 2026-04-25 13:13 | 53.76828 | 10.62028 | 40019 ft | 480 kts | 208° |
| 2026-04-25 13:13 | 53.70655 | 10.57679 | 40016 ft | 481 kts | 208° |
| 2026-04-25 13:14 | 53.64475 | 10.53339 | 40018 ft | 481 kts | 208° |
| 2026-04-25 13:14 | 53.58335 | 10.49041 | 40021 ft | 481 kts | 208° |
| 2026-04-25 13:15 | 53.52161 | 10.44732 | 40036 ft | 480 kts | 208° |
| 2026-04-25 13:15 | 53.45986 | 10.40436 | 40030 ft | 480 kts | 208° |
| 2026-04-25 13:16 | 53.39818 | 10.36158 | 40037 ft | 479 kts | 208° |
| 2026-04-25 13:16 | 53.33701 | 10.31930 | 40035 ft | 479 kts | 208° |
| 2026-04-25 13:17 | 53.27551 | 10.27691 | 40038 ft | 478 kts | 208° |
| 2026-04-25 13:17 | 53.21402 | 10.23466 | 40045 ft | 478 kts | 208° |
| 2026-04-25 13:18 | 53.15258 | 10.19257 | 40053 ft | 477 kts | 208° |
| 2026-04-25 13:18 | 53.09157 | 10.15091 | 40061 ft | 477 kts | 207° |
| 2026-04-25 13:19 | 53.03014 | 10.10909 | 40070 ft | 477 kts | 207° |
| 2026-04-25 13:19 | 52.97910 | 10.07444 | 40069 ft | 477 kts | 207° |
| 2026-04-25 13:20 | 52.90730 | 10.02586 | 40072 ft | 477 kts | 207° |
| 2026-04-25 13:20 | 52.84588 | 9.98443 | 40070 ft | 477 kts | 207° |
| 2026-04-25 13:21 | 52.78492 | 9.94344 | 40068 ft | 476 kts | 207° |
| 2026-04-25 13:21 | 52.72349 | 9.90225 | 40078 ft | 476 kts | 207° |
| 2026-04-25 13:22 | 52.66205 | 9.86119 | 40072 ft | 476 kts | 207° |
| 2026-04-25 13:23 | 52.57034 | 9.80014 | 40070 ft | 476 kts | 207° |
| 2026-04-25 13:23 | 52.50902 | 9.75946 | 40098 ft | 475 kts | 207° |
| 2026-04-25 13:24 | 52.44768 | 9.71890 | 40095 ft | 475 kts | 207° |
| 2026-04-25 13:24 | 52.38645 | 9.67853 | 40095 ft | 474 kts | 207° |
| 2026-04-25 13:25 | 52.32529 | 9.63833 | 40093 ft | 474 kts | 207° |
| 2026-04-25 13:25 | 52.26457 | 9.59853 | 40096 ft | 473 kts | 207° |
| 2026-04-25 13:26 | 52.20352 | 9.55863 | 40090 ft | 473 kts | 207° |
| 2026-04-25 13:26 | 52.14239 | 9.51881 | 40095 ft | 473 kts | 207° |
| 2026-04-25 13:27 | 52.08131 | 9.47912 | 40094 ft | 473 kts | 207° |
| 2026-04-25 13:27 | 52.02065 | 9.43984 | 40095 ft | 472 kts | 207° |
| 2026-04-25 13:28 | 51.95960 | 9.40041 | 40101 ft | 472 kts | 207° |
| 2026-04-25 13:28 | 51.89855 | 9.36110 | 40102 ft | 472 kts | 206° |
| 2026-04-25 13:29 | 51.83748 | 9.32189 | 40101 ft | 472 kts | 206° |
| 2026-04-25 13:29 | 51.77682 | 9.28306 | 40109 ft | 472 kts | 206° |
| 2026-04-25 13:30 | 51.68521 | 9.22461 | 40107 ft | 472 kts | 206° |
| 2026-04-25 13:31 | 51.59350 | 9.16636 | 40100 ft | 472 kts | 206° |
| 2026-04-25 13:31 | 51.53275 | 9.12791 | 40101 ft | 472 kts | 206° |
| 2026-04-25 13:32 | 51.46965 | 9.09703 | 40107 ft | 478 kts | 196° |
| 2026-04-25 13:32 | 51.40439 | 9.07603 | 40105 ft | 479 kts | 196° |
| 2026-04-25 13:33 | 51.33920 | 9.05434 | 40108 ft | 478 kts | 196° |
| 2026-04-25 13:33 | 51.27390 | 9.03662 | 40123 ft | 481 kts | 191° |
| 2026-04-25 13:34 | 51.20741 | 9.02374 | 40115 ft | 481 kts | 191° |
| 2026-04-25 13:34 | 51.14098 | 9.01105 | 40104 ft | 481 kts | 191° |
| 2026-04-25 13:35 | 51.07460 | 8.99804 | 40098 ft | 480 kts | 191° |
| 2026-04-25 13:35 | 51.00830 | 8.98487 | 40091 ft | 480 kts | 191° |
| 2026-04-25 13:36 | 50.94251 | 8.97182 | 40104 ft | 479 kts | 191° |
| 2026-04-25 13:36 | 50.87636 | 8.95874 | 40092 ft | 479 kts | 191° |
| 2026-04-25 13:37 | 50.81026 | 8.94574 | 40099 ft | 478 kts | 191° |
| 2026-04-25 13:37 | 50.74418 | 8.93277 | 40092 ft | 478 kts | 191° |
| 2026-04-25 13:38 | 50.67864 | 8.91993 | 40100 ft | 478 kts | 191° |
| 2026-04-25 13:38 | 50.61271 | 8.90706 | 40095 ft | 478 kts | 191° |
| 2026-04-25 13:39 | 50.54673 | 8.89422 | 40100 ft | 478 kts | 191° |
| 2026-04-25 13:39 | 50.48075 | 8.88142 | 40098 ft | 478 kts | 191° |
| 2026-04-25 13:40 | 50.41524 | 8.86874 | 40103 ft | 478 kts | 191° |
| 2026-04-25 13:40 | 50.34937 | 8.85602 | 40106 ft | 478 kts | 191° |
| 2026-04-25 13:41 | 50.28330 | 8.84330 | 40103 ft | 478 kts | 191° |
| 2026-04-25 13:41 | 50.21723 | 8.83062 | 40101 ft | 478 kts | 191° |
| 2026-04-25 13:42 | 50.15161 | 8.81806 | 40108 ft | 478 kts | 191° |
| 2026-04-25 13:42 | 50.08551 | 8.80544 | 40105 ft | 478 kts | 190° |
| 2026-04-25 13:43 | 50.01949 | 8.79257 | 40104 ft | 478 kts | 191° |
| 2026-04-25 13:43 | 49.95347 | 8.77885 | 40103 ft | 478 kts | 191° |
| 2026-04-25 13:44 | 49.88797 | 8.76524 | 40108 ft | 478 kts | 191° |
| 2026-04-25 13:44 | 49.82208 | 8.75170 | 40121 ft | 478 kts | 191° |
| 2026-04-25 13:45 | 49.75607 | 8.73823 | 40102 ft | 478 kts | 191° |
| 2026-04-25 13:45 | 49.69019 | 8.72480 | 40110 ft | 478 kts | 191° |
| 2026-04-25 13:46 | 49.62423 | 8.71136 | 40101 ft | 477 kts | 191° |
| 2026-04-25 13:46 | 49.55887 | 8.69804 | 40100 ft | 477 kts | 191° |
| 2026-04-25 13:47 | 49.49316 | 8.68472 | 40098 ft | 476 kts | 191° |
| 2026-04-25 13:47 | 49.42757 | 8.67143 | 40103 ft | 475 kts | 191° |
| 2026-04-25 13:48 | 49.36200 | 8.65814 | 40102 ft | 475 kts | 191° |
| 2026-04-25 13:48 | 49.29704 | 8.64501 | 40104 ft | 474 kts | 191° |
| 2026-04-25 13:49 | 49.23160 | 8.63182 | 40106 ft | 474 kts | 191° |
| 2026-04-25 13:49 | 49.16626 | 8.61868 | 40106 ft | 474 kts | 190° |
| 2026-04-25 13:50 | 49.10086 | 8.60556 | 40110 ft | 474 kts | 190° |
| 2026-04-25 13:50 | 49.03585 | 8.59256 | 40104 ft | 474 kts | 190° |
| 2026-04-25 13:51 | 48.97070 | 8.57759 | 40107 ft | 472 kts | 194° |
| 2026-04-25 13:51 | 48.90642 | 8.55667 | 40111 ft | 473 kts | 195° |
| 2026-04-25 13:52 | 48.84209 | 8.53533 | 40106 ft | 473 kts | 195° |
| 2026-04-25 13:52 | 48.77805 | 8.51446 | 40097 ft | 474 kts | 195° |
| 2026-04-25 13:53 | 48.71354 | 8.49370 | 40105 ft | 474 kts | 195° |
| 2026-04-25 13:53 | 48.64895 | 8.47301 | 40112 ft | 475 kts | 195° |
| 2026-04-25 13:54 | 48.58428 | 8.45233 | 40101 ft | 475 kts | 195° |
| 2026-04-25 13:54 | 48.51998 | 8.43180 | 40107 ft | 475 kts | 195° |
| 2026-04-25 13:55 | 48.45526 | 8.41119 | 40116 ft | 476 kts | 195° |
| 2026-04-25 13:55 | 48.39050 | 8.39064 | 40112 ft | 476 kts | 195° |
| 2026-04-25 13:56 | 48.32574 | 8.37012 | 40117 ft | 476 kts | 194° |
| 2026-04-25 13:56 | 48.26128 | 8.34975 | 40114 ft | 477 kts | 194° |
| 2026-04-25 13:57 | 48.19673 | 8.32739 | 40111 ft | 474 kts | 201° |
| 2026-04-25 13:57 | 48.13646 | 8.28883 | 40127 ft | 470 kts | 212° |
| 2026-04-25 13:58 | 48.08116 | 8.23682 | 40385 ft | 469 kts | 216° |
| 2026-04-25 13:58 | 48.05395 | 8.21016 | 40528 ft | 467 kts | 216° |
| 2026-04-25 13:58 | 48.02676 | 8.18357 | 40672 ft | 467 kts | 216° |
| 2026-04-25 13:59 | 47.97255 | 8.13103 | 40873 ft | 468 kts | 216° |
| 2026-04-25 13:59 | 47.94517 | 8.10471 | 41002 ft | 468 kts | 216° |
| 2026-04-25 13:59 | 47.91770 | 8.07840 | 41038 ft | 469 kts | 216° |
| 2026-04-25 14:00 | 47.87212 | 8.03490 | 41104 ft | 467 kts | 216° |
| 2026-04-25 14:00 | 47.80821 | 7.97405 | 41107 ft | 466 kts | 216° |
| 2026-04-25 14:01 | 47.75398 | 7.92253 | 41103 ft | 465 kts | 216° |
| 2026-04-25 14:01 | 47.69949 | 7.87088 | 41089 ft | 463 kts | 216° |
| 2026-04-25 14:02 | 47.64509 | 7.81945 | 41106 ft | 465 kts | 216° |
| 2026-04-25 14:02 | 47.59037 | 7.76783 | 41102 ft | 467 kts | 216° |
| 2026-04-25 14:03 | 47.53582 | 7.71652 | 41103 ft | 468 kts | 216° |
| 2026-04-25 14:03 | 47.48129 | 7.66535 | 41092 ft | 469 kts | 215° |
| 2026-04-25 14:04 | 47.42612 | 7.61371 | 41096 ft | 469 kts | 215° |
| 2026-04-25 14:04 | 47.37133 | 7.56258 | 40929 ft | 463 kts | 215° |
| 2026-04-25 14:04 | 47.34414 | 7.53725 | 40594 ft | 463 kts | 215° |
| 2026-04-25 14:05 | 47.31687 | 7.51185 | 40245 ft | 464 kts | 215° |
| 2026-04-25 14:05 | 47.28959 | 7.48646 | 39902 ft | 464 kts | 215° |
| 2026-04-25 14:05 | 47.26271 | 7.46149 | 39661 ft | 462 kts | 215° |
| 2026-04-25 14:05 | 47.23561 | 7.43637 | 39459 ft | 459 kts | 216° |
| 2026-04-25 14:06 | 47.20874 | 7.41148 | 39292 ft | 454 kts | 216° |
| 2026-04-25 14:06 | 47.18296 | 7.38507 | 39044 ft | 450 kts | 222° |
| 2026-04-25 14:06 | 47.15951 | 7.35507 | 38662 ft | 443 kts | 227° |
| 2026-04-25 14:06 | 47.13827 | 7.32272 | 38160 ft | 436 kts | 233° |
| 2026-04-25 14:07 | 47.11950 | 7.28829 | 37743 ft | 429 kts | 235° |
| 2026-04-25 14:07 | 47.10134 | 7.25382 | 37292 ft | 424 kts | 236° |
| 2026-04-25 14:07 | 47.08326 | 7.21980 | 36871 ft | 420 kts | 235° |
| 2026-04-25 14:07 | 47.06525 | 7.18636 | 36437 ft | 416 kts | 235° |
| 2026-04-25 14:08 | 47.04754 | 7.15374 | 36011 ft | 413 kts | 235° |
| 2026-04-25 14:08 | 47.02963 | 7.12105 | 35627 ft | 409 kts | 235° |
| 2026-04-25 14:08 | 47.01186 | 7.08869 | 35158 ft | 407 kts | 235° |
| 2026-04-25 14:08 | 46.99417 | 7.05649 | 34724 ft | 404 kts | 235° |
| 2026-04-25 14:09 | 46.97664 | 7.02457 | 34285 ft | 401 kts | 235° |
| 2026-04-25 14:09 | 46.95922 | 6.99285 | 33836 ft | 398 kts | 235° |
| 2026-04-25 14:09 | 46.94191 | 6.96134 | 33366 ft | 396 kts | 235° |
| 2026-04-25 14:09 | 46.93633 | 6.95121 | 33219 ft | 394 kts | 235° |
| 2026-04-25 14:10 | 46.90791 | 6.89964 | 32500 ft | 389 kts | 235° |
| 2026-04-25 14:10 | 46.89102 | 6.86893 | 32093 ft | 386 kts | 235° |
| 2026-04-25 14:10 | 46.87431 | 6.83847 | 31678 ft | 383 kts | 235° |
| 2026-04-25 14:10 | 46.85769 | 6.80820 | 31267 ft | 380 kts | 235° |
| 2026-04-25 14:11 | 46.84116 | 6.77811 | 30876 ft | 378 kts | 235° |
| 2026-04-25 14:11 | 46.82475 | 6.74828 | 30475 ft | 376 kts | 235° |
| 2026-04-25 14:11 | 46.80842 | 6.71862 | 30067 ft | 374 kts | 235° |
| 2026-04-25 14:11 | 46.79214 | 6.68909 | 29606 ft | 372 kts | 235° |
| 2026-04-25 14:12 | 46.77596 | 6.65974 | 29189 ft | 370 kts | 235° |
| 2026-04-25 14:12 | 46.76005 | 6.63095 | 28778 ft | 368 kts | 235° |
| 2026-04-25 14:12 | 46.74402 | 6.60197 | 28387 ft | 366 kts | 235° |
| 2026-04-25 14:12 | 46.72809 | 6.57323 | 27993 ft | 364 kts | 235° |
| 2026-04-25 14:13 | 46.71179 | 6.54505 | 27610 ft | 363 kts | 233° |
| 2026-04-25 14:13 | 46.69511 | 6.51756 | 27217 ft | 361 kts | 232° |
| 2026-04-25 14:13 | 46.67840 | 6.49040 | 26840 ft | 359 kts | 232° |
| 2026-04-25 14:13 | 46.66175 | 6.46337 | 26460 ft | 357 kts | 232° |
| 2026-04-25 14:14 | 46.64523 | 6.43647 | 26081 ft | 356 kts | 232° |
| 2026-04-25 14:14 | 46.62879 | 6.40964 | 25715 ft | 354 kts | 232° |
| 2026-04-25 14:14 | 46.61245 | 6.38293 | 25349 ft | 353 kts | 232° |
| 2026-04-25 14:14 | 46.59616 | 6.35627 | 24977 ft | 352 kts | 232° |
| 2026-04-25 14:15 | 46.58015 | 6.33006 | 24610 ft | 352 kts | 232° |
| 2026-04-25 14:15 | 46.57466 | 6.32107 | 24497 ft | 351 kts | 232° |
| 2026-04-25 14:15 | 46.54772 | 6.27704 | 23878 ft | 350 kts | 232° |
| 2026-04-25 14:15 | 46.53154 | 6.25060 | 23461 ft | 350 kts | 232° |
| 2026-04-25 14:16 | 46.51537 | 6.22422 | 23055 ft | 349 kts | 232° |
| 2026-04-25 14:16 | 46.49925 | 6.19796 | 22666 ft | 348 kts | 232° |
| 2026-04-25 14:16 | 46.48318 | 6.17179 | 22287 ft | 346 kts | 232° |
| 2026-04-25 14:16 | 46.46719 | 6.14578 | 21912 ft | 345 kts | 232° |
| 2026-04-25 14:17 | 46.45148 | 6.12025 | 21559 ft | 343 kts | 232° |
| 2026-04-25 14:17 | 46.43559 | 6.09443 | 21187 ft | 342 kts | 232° |
| 2026-04-25 14:17 | 46.41974 | 6.06872 | 20814 ft | 342 kts | 231° |
| 2026-04-25 14:17 | 46.40390 | 6.04302 | 20448 ft | 342 kts | 232° |
| 2026-04-25 14:18 | 46.38806 | 6.01737 | 20099 ft | 342 kts | 231° |
| 2026-04-25 14:18 | 46.37218 | 5.99165 | 19709 ft | 342 kts | 231° |
| 2026-04-25 14:18 | 46.35633 | 5.96605 | 19346 ft | 341 kts | 231° |
| 2026-04-25 14:18 | 46.34069 | 5.94079 | 18985 ft | 341 kts | 231° |
| 2026-04-25 14:19 | 46.32486 | 5.91526 | 18620 ft | 341 kts | 231° |
| 2026-04-25 14:19 | 46.30906 | 5.88961 | 18229 ft | 339 kts | 234° |
| 2026-04-25 14:19 | 46.29721 | 5.86081 | 17859 ft | 328 kts | 252° |
| 2026-04-25 14:19 | 46.28992 | 5.82990 | 17578 ft | 324 kts | 255° |
| 2026-04-25 14:20 | 46.28756 | 5.81942 | 17477 ft | 323 kts | 255° |
| 2026-04-25 14:20 | 46.28065 | 5.78893 | 17186 ft | 324 kts | 255° |
| 2026-04-25 14:20 | 46.26866 | 5.73724 | 16718 ft | 324 kts | 254° |
| 2026-04-25 14:20 | 46.26136 | 5.70636 | 16432 ft | 325 kts | 254° |
| 2026-04-25 14:21 | 46.25408 | 5.67586 | 16160 ft | 325 kts | 253° |
| 2026-04-25 14:21 | 46.24666 | 5.64498 | 15872 ft | 326 kts | 253° |
| 2026-04-25 14:21 | 46.23921 | 5.61406 | 15586 ft | 325 kts | 253° |
| 2026-04-25 14:21 | 46.23179 | 5.58337 | 15305 ft | 321 kts | 253° |
| 2026-04-25 14:22 | 46.22450 | 5.55319 | 15022 ft | 316 kts | 253° |
| 2026-04-25 14:22 | 46.21732 | 5.52340 | 14736 ft | 313 kts | 253° |
| 2026-04-25 14:22 | 46.21021 | 5.49384 | 14466 ft | 311 kts | 253° |
| 2026-04-25 14:22 | 46.20310 | 5.46441 | 14198 ft | 310 kts | 253° |
| 2026-04-25 14:23 | 46.19600 | 5.43509 | 13931 ft | 309 kts | 253° |
| 2026-04-25 14:23 | 46.18886 | 5.40593 | 13626 ft | 306 kts | 250° |
| 2026-04-25 14:23 | 46.17761 | 5.38057 | 13341 ft | 310 kts | 226° |
| 2026-04-25 14:23 | 46.15978 | 5.36314 | 13051 ft | 311 kts | 206° |
| 2026-04-25 14:24 | 46.14008 | 5.35043 | 12802 ft | 310 kts | 205° |
| 2026-04-25 14:24 | 46.12040 | 5.33769 | 12525 ft | 310 kts | 205° |
| 2026-04-25 14:24 | 46.10122 | 5.32850 | 12235 ft | 308 kts | 187° |
| 2026-04-25 14:24 | 46.07990 | 5.32734 | 11992 ft | 309 kts | 180° |
| 2026-04-25 14:25 | 46.07293 | 5.32730 | 11907 ft | 310 kts | 180° |
| 2026-04-25 14:25 | 46.03630 | 5.32731 | 11443 ft | 318 kts | 180° |
| 2026-04-25 14:25 | 46.01440 | 5.32727 | 11156 ft | 318 kts | 180° |
| 2026-04-25 14:25 | 46.00696 | 5.32725 | 11082 ft | 317 kts | 180° |
| 2026-04-25 14:26 | 45.97084 | 5.32696 | 10598 ft | 309 kts | 181° |
| 2026-04-25 14:26 | 45.94942 | 5.32671 | 10332 ft | 308 kts | 181° |
| 2026-04-25 14:26 | 45.92802 | 5.32644 | 10065 ft | 306 kts | 180° |
| 2026-04-25 14:26 | 45.90689 | 5.32616 | 9756 ft | 302 kts | 181° |
| 2026-04-25 14:27 | 45.88599 | 5.32586 | 9478 ft | 300 kts | 181° |
| 2026-04-25 14:27 | 45.86517 | 5.32554 | 9206 ft | 299 kts | 181° |
| 2026-04-25 14:27 | 45.84470 | 5.32527 | 8938 ft | 298 kts | 181° |
| 2026-04-25 14:27 | 45.82374 | 5.32492 | 8676 ft | 297 kts | 181° |
| 2026-04-25 14:28 | 45.80338 | 5.32462 | 8433 ft | 297 kts | 181° |
| 2026-04-25 14:28 | 45.78267 | 5.32431 | 8144 ft | 298 kts | 181° |
| 2026-04-25 14:28 | 45.76199 | 5.32397 | 7930 ft | 296 kts | 181° |
| 2026-04-25 14:28 | 45.74173 | 5.32372 | 7742 ft | 286 kts | 181° |
| 2026-04-25 14:29 | 45.72187 | 5.32344 | 7314 ft | 285 kts | 181° |
| 2026-04-25 14:29 | 45.70218 | 5.32310 | 6971 ft | 282 kts | 182° |
| 2026-04-25 14:29 | 45.68259 | 5.32270 | 6570 ft | 281 kts | 181° |
| 2026-04-25 14:29 | 45.66324 | 5.32246 | 6219 ft | 278 kts | 181° |
| 2026-04-25 14:30 | 45.64444 | 5.32076 | 5752 ft | 275 kts | 195° |
| 2026-04-25 14:30 | 45.61315 | 5.29193 | 4939 ft | 266 kts | 219° |
| 2026-04-25 14:30 | 45.59814 | 5.27603 | 4511 ft | 269 kts | 218° |
| 2026-04-25 14:31 | 45.58313 | 5.26015 | 4211 ft | 267 kts | 219° |
| 2026-04-25 14:31 | 45.56843 | 5.24470 | 4084 ft | 256 kts | 218° |
| 2026-04-25 14:31 | 45.55423 | 5.23030 | 4001 ft | 244 kts | 218° |
| 2026-04-25 14:31 | 45.54153 | 5.21562 | 3945 ft | 227 kts | 234° |
| 2026-04-25 14:32 | 45.53462 | 5.19637 | 4027 ft | 224 kts | 256° |
| 2026-04-25 14:32 | 45.53189 | 5.17416 | 4000 ft | 229 kts | 267° |
| 2026-04-25 14:32 | 45.53086 | 5.15503 | 3883 ft | 224 kts | 269° |
| 2026-04-25 14:32 | 45.53257 | 5.13385 | 3603 ft | 214 kts | 298° |
| 2026-04-25 14:33 | 45.54205 | 5.11837 | 3185 ft | 206 kts | 334° |
| 2026-04-25 14:33 | 45.55547 | 5.11374 | 3068 ft | 197 kts | 355° |
| 2026-04-25 14:33 | 45.56945 | 5.11200 | 2991 ft | 203 kts | 355° |
| 2026-04-25 14:33 | 45.58318 | 5.11022 | 2987 ft | 192 kts | 353° |
| 2026-04-25 14:34 | 45.59624 | 5.10837 | 3022 ft | 185 kts | 357° |
| 2026-04-25 14:34 | 45.60913 | 5.10710 | 2772 ft | 191 kts | 355° |
| 2026-04-25 14:34 | 45.62203 | 5.10549 | 2516 ft | 182 kts | 357° |
| 2026-04-25 14:34 | 45.63409 | 5.10434 | 2342 ft | 167 kts | 354° |
| 2026-04-25 14:35 | 45.64542 | 5.10278 | 2121 ft | 160 kts | 353° |
| 2026-04-25 14:35 | 45.65623 | 5.10145 | 1891 ft | 150 kts | 355° |
| 2026-04-25 14:35 | 45.66615 | 5.10024 | 1719 ft | 136 kts | 354° |
| 2026-04-25 14:35 | 45.67544 | 5.09910 | 1524 ft | 137 kts | 355° |
| 2026-04-25 14:36 | 45.68486 | 5.09784 | 1347 ft | 136 kts | 353° |
| 2026-04-25 14:36 | 45.69408 | 5.09657 | 1227 ft | 132 kts | 355° |
| 2026-04-25 14:36 | 45.70319 | 5.09546 | 1056 ft | 130 kts | 355° |
| 2026-04-25 14:36 | 45.71200 | 5.09453 | 853 ft | 121 kts | 355° |
| 2026-04-25 14:37 | 45.71902 | 5.09380 | 812 ft | 61 kts | 355° |
| 2026-04-25 14:37 | 45.72163 | 5.09348 | 811 ft | 23 kts | 355° |
| 2026-04-25 14:37 | 45.72379 | 5.09316 | 810 ft | 30 kts | 347° |
| 2026-04-25 14:37 | 45.72554 | 5.09205 | 808 ft | 27 kts | 326° |
| 2026-04-25 14:38 | 45.72647 | 5.09116 | 807 ft | 13 kts | 329° |
| 2026-04-25 14:38 | 45.72732 | 5.09060 | 806 ft | 14 kts | 344° |
| 2026-04-25 14:38 | 45.72825 | 5.09043 | 806 ft | 14 kts | 354° |
| 2026-04-25 14:38 | 45.72898 | 5.09034 | 806 ft | 9 kts | 353° |
| 2026-04-25 14:39 | 45.72954 | 5.08992 | 806 ft | 10 kts | 304° |
| 2026-04-25 14:39 | 45.72959 | 5.08872 | 804 ft | 14 kts | 266° |
| 2026-04-25 14:39 | 45.72951 | 5.08723 | 804 ft | 15 kts | 262° |
| 2026-04-25 14:39 | 45.72943 | 5.08574 | 806 ft | 15 kts | 266° |
| 2026-04-25 14:40 | 45.72926 | 5.08426 | 807 ft | 16 kts | 246° |
| 2026-04-25 14:40 | 45.72832 | 5.08353 | 807 ft | 18 kts | 174° |
| 2026-04-25 14:40 | 45.72711 | 5.08366 | 807 ft | 18 kts | 176° |
| 2026-04-25 14:40 | 45.72586 | 5.08381 | 807 ft | 19 kts | 175° |
| 2026-04-25 14:41 | 45.72452 | 5.08398 | 807 ft | 20 kts | 175° |
| 2026-04-25 14:41 | 45.72322 | 5.08414 | 807 ft | 13 kts | 174° |
| 2026-04-25 14:41 | 45.72162 | 5.08435 | 807 ft | 31 kts | 175° |
| 2026-04-25 14:41 | 45.72026 | 5.08453 | 807 ft | 14 kts | 175° |
| 2026-04-25 14:42 | 45.71956 | 5.08386 | 807 ft | 14 kts | 263° |
| 2026-04-25 14:42 | 45.71961 | 5.08341 | 807 ft | 14 kts | 283° |
| 2026-04-25 14:42 | 45.71862 | 5.08190 | 807 ft | 15 kts | 195° |
| 2026-04-25 14:42 | 45.71765 | 5.08131 | 807 ft | 16 kts | 213° |
| 2026-04-25 14:43 | 45.71663 | 5.08064 | 807 ft | 17 kts | 198° |
| 2026-04-25 14:43 | 45.71576 | 5.08030 | 807 ft | 8 kts | 195° |
| 2026-04-25 14:43 | 45.71537 | 5.07985 | 807 ft | 5 kts | 269° |
| 2026-04-25 14:43 | 45.71564 | 5.07945 | 807 ft | 6 kts | 310° |
| 2026-04-25 14:44 | 45.71589 | 5.07904 | 807 ft | 3 kts | 311° |
| 2026-04-25 14:44 | 45.71590 | 5.07901 | 807 ft | 0 kts | 311° |